sensor_id;sensor_type;location;lat;lon;timestamp;temperature;humidity
29731;DHT22;16639;51.488;0.152;2023-07-02T00:00:13;18.00;99.90
29731;DHT22;16639;51.488;0.152;2023-07-02T00:02:41;18.00;99.90
29731;DHT22;16639;51.488;0.152;2023-07-02T00:05:08;17.80;99.90
29731;DHT22;16639;51.488;0.152;2023-07-02T00:07:36;18.00;99.90
29731;DHT22;16639;51.488;0.152;2023-07-02T00:10:05;18.00;99.90
29731;DHT22;16639;51.488;0.152;2023-07-02T00:12:32;17.90;99.90
29731;DHT22;16639;51.488;0.152;2023-07-02T00:15:01;17.90;99.90
29731;DHT22;16639;51.488;0.152;2023-07-02T00:17:29;17.90;99.90
29731;DHT22;16639;51.488;0.152;2023-07-02T00:19:57;17.90;99.90
29731;DHT22;16639;51.488;0.152;2023-07-02T00:22:33;17.80;99.90
29731;DHT22;16639;51.488;0.152;2023-07-02T00:25:03;17.80;99.90
29731;DHT22;16639;51.488;0.152;2023-07-02T00:27:31;17.80;99.90
29731;DHT22;16639;51.488;0.152;2023-07-02T00:29:58;17.80;99.90
29731;DHT22;16639;51.488;0.152;2023-07-02T00:32:26;17.80;99.90
29731;DHT22;16639;51.488;0.152;2023-07-02T00:34:53;17.80;99.90
29731;DHT22;16639;51.488;0.152;2023-07-02T00:37:22;17.80;99.90
29731;DHT22;16639;51.488;0.152;2023-07-02T00:39:49;17.80;99.90
29731;DHT22;16639;51.488;0.152;2023-07-02T00:42:17;17.70;99.90
29731;DHT22;16639;51.488;0.152;2023-07-02T00:44:46;17.70;99.90
29731;DHT22;16639;51.488;0.152;2023-07-02T00:47:13;17.70;99.90
29731;DHT22;16639;51.488;0.152;2023-07-02T00:49:41;17.70;99.90
29731;DHT22;16639;51.488;0.152;2023-07-02T00:52:10;17.70;99.90
29731;DHT22;16639;51.488;0.152;2023-07-02T00:54:38;17.70;99.90
29731;DHT22;16639;51.488;0.152;2023-07-02T00:57:07;17.60;99.90
29731;DHT22;16639;51.488;0.152;2023-07-02T00:59:35;17.60;99.90
29731;DHT22;16639;51.488;0.152;2023-07-02T01:02:05;17.60;99.90
29731;DHT22;16639;51.488;0.152;2023-07-02T01:04:34;17.50;99.90
29731;DHT22;16639;51.488;0.152;2023-07-02T01:07:02;17.50;99.90
29731;DHT22;16639;51.488;0.152;2023-07-02T01:09:31;17.50;99.90
29731;DHT22;16639;51.488;0.152;2023-07-02T01:12:07;17.50;99.90
29731;DHT22;16639;51.488;0.152;2023-07-02T01:14:41;17.50;99.90
29731;DHT22;16639;51.488;0.152;2023-07-02T01:17:10;17.40;99.90
29731;DHT22;16639;51.488;0.152;2023-07-02T01:22:25;17.40;99.90
29731;DHT22;16639;51.488;0.152;2023-07-02T01:24:53;17.40;99.90
29731;DHT22;16639;51.488;0.152;2023-07-02T01:27:21;17.40;99.90
29731;DHT22;16639;51.488;0.152;2023-07-02T01:29:52;17.40;99.90
29731;DHT22;16639;51.488;0.152;2023-07-02T01:32:21;17.40;99.90
29731;DHT22;16639;51.488;0.152;2023-07-02T01:34:49;17.20;99.90
29731;DHT22;16639;51.488;0.152;2023-07-02T01:37:21;17.50;99.90
29731;DHT22;16639;51.488;0.152;2023-07-02T01:39:49;17.40;99.90
29731;DHT22;16639;51.488;0.152;2023-07-02T01:42:18;17.30;99.90
29731;DHT22;16639;51.488;0.152;2023-07-02T01:44:48;17.30;99.90
29731;DHT22;16639;51.488;0.152;2023-07-02T01:47:16;17.70;99.90
29731;DHT22;16639;51.488;0.152;2023-07-02T01:49:45;17.10;99.90
29731;DHT22;16639;51.488;0.152;2023-07-02T01:52:12;17.10;99.90
29731;DHT22;16639;51.488;0.152;2023-07-02T01:54:39;17.10;99.90
29731;DHT22;16639;51.488;0.152;2023-07-02T01:57:07;17.10;99.90
29731;DHT22;16639;51.488;0.152;2023-07-02T01:59:35;17.10;99.90
29731;DHT22;16639;51.488;0.152;2023-07-02T02:02:02;17.00;99.90
29731;DHT22;16639;51.488;0.152;2023-07-02T02:04:30;17.00;99.90
29731;DHT22;16639;51.488;0.152;2023-07-02T02:06:58;16.30;99.90
29731;DHT22;16639;51.488;0.152;2023-07-02T02:09:25;17.00;99.90
29731;DHT22;16639;51.488;0.152;2023-07-02T02:11:55;17.00;99.90
29731;DHT22;16639;51.488;0.152;2023-07-02T02:14:23;16.90;99.90
29731;DHT22;16639;51.488;0.152;2023-07-02T02:16:50;16.90;99.90
29731;DHT22;16639;51.488;0.152;2023-07-02T02:19:18;16.90;99.90
29731;DHT22;16639;51.488;0.152;2023-07-02T02:21:45;16.80;99.90
29731;DHT22;16639;51.488;0.152;2023-07-02T02:24:13;16.90;99.90
29731;DHT22;16639;51.488;0.152;2023-07-02T02:26:40;16.90;99.90
29731;DHT22;16639;51.488;0.152;2023-07-02T02:29:08;16.80;99.90
29731;DHT22;16639;51.488;0.152;2023-07-02T02:31:35;16.80;99.90
29731;DHT22;16639;51.488;0.152;2023-07-02T02:34:03;16.80;99.90
29731;DHT22;16639;51.488;0.152;2023-07-02T02:36:31;16.80;99.90
29731;DHT22;16639;51.488;0.152;2023-07-02T02:38:59;16.80;99.90
29731;DHT22;16639;51.488;0.152;2023-07-02T02:41:27;16.80;99.90
29731;DHT22;16639;51.488;0.152;2023-07-02T02:43:54;16.80;99.90
29731;DHT22;16639;51.488;0.152;2023-07-02T02:46:22;16.80;99.90
29731;DHT22;16639;51.488;0.152;2023-07-02T02:48:50;16.40;99.90
29731;DHT22;16639;51.488;0.152;2023-07-02T02:51:19;16.70;99.90
29731;DHT22;16639;51.488;0.152;2023-07-02T02:53:46;16.70;99.90
29731;DHT22;16639;51.488;0.152;2023-07-02T02:56:14;16.70;99.90
29731;DHT22;16639;51.488;0.152;2023-07-02T02:58:41;16.70;99.90
29731;DHT22;16639;51.488;0.152;2023-07-02T03:01:09;16.70;99.90
29731;DHT22;16639;51.488;0.152;2023-07-02T03:03:39;16.70;99.90
29731;DHT22;16639;51.488;0.152;2023-07-02T03:06:08;16.70;99.90
29731;DHT22;16639;51.488;0.152;2023-07-02T03:08:35;16.60;99.90
29731;DHT22;16639;51.488;0.152;2023-07-02T03:11:02;16.60;99.90
29731;DHT22;16639;51.488;0.152;2023-07-02T03:13:30;16.60;99.90
29731;DHT22;16639;51.488;0.152;2023-07-02T03:15:58;16.60;99.90
29731;DHT22;16639;51.488;0.152;2023-07-02T03:18:25;16.60;99.90
29731;DHT22;16639;51.488;0.152;2023-07-02T03:20:53;16.60;99.90
29731;DHT22;16639;51.488;0.152;2023-07-02T03:23:20;16.60;99.90
29731;DHT22;16639;51.488;0.152;2023-07-02T03:25:48;16.60;99.90
29731;DHT22;16639;51.488;0.152;2023-07-02T03:28:15;16.50;99.90
29731;DHT22;16639;51.488;0.152;2023-07-02T03:30:42;16.50;99.90
29731;DHT22;16639;51.488;0.152;2023-07-02T03:33:10;16.50;99.90
29731;DHT22;16639;51.488;0.152;2023-07-02T03:35:38;16.50;99.90
29731;DHT22;16639;51.488;0.152;2023-07-02T03:38:06;15.70;99.90
29731;DHT22;16639;51.488;0.152;2023-07-02T03:40:33;16.40;99.90
29731;DHT22;16639;51.488;0.152;2023-07-02T03:43:00;16.20;99.90
29731;DHT22;16639;51.488;0.152;2023-07-02T03:45:28;16.40;99.90
29731;DHT22;16639;51.488;0.152;2023-07-02T03:47:56;16.40;99.90
29731;DHT22;16639;51.488;0.152;2023-07-02T03:50:24;16.30;99.90
29731;DHT22;16639;51.488;0.152;2023-07-02T03:52:51;16.30;99.90
29731;DHT22;16639;51.488;0.152;2023-07-02T03:55:19;16.30;99.90
29731;DHT22;16639;51.488;0.152;2023-07-02T03:57:47;16.20;99.90
29731;DHT22;16639;51.488;0.152;2023-07-02T04:00:14;15.70;99.90
29731;DHT22;16639;51.488;0.152;2023-07-02T04:02:42;16.10;99.90
29731;DHT22;16639;51.488;0.152;2023-07-02T04:05:09;16.10;99.90
29731;DHT22;16639;51.488;0.152;2023-07-02T04:07:37;16.10;99.90
29731;DHT22;16639;51.488;0.152;2023-07-02T04:10:05;16.10;99.90
29731;DHT22;16639;51.488;0.152;2023-07-02T04:12:32;16.10;99.90
29731;DHT22;16639;51.488;0.152;2023-07-02T04:15:00;16.10;99.90
29731;DHT22;16639;51.488;0.152;2023-07-02T04:17:27;16.00;99.90
29731;DHT22;16639;51.488;0.152;2023-07-02T04:19:59;16.00;99.90
29731;DHT22;16639;51.488;0.152;2023-07-02T04:22:27;16.00;99.90
29731;DHT22;16639;51.488;0.152;2023-07-02T04:24:54;16.00;99.90
29731;DHT22;16639;51.488;0.152;2023-07-02T04:27:28;16.00;99.90
29731;DHT22;16639;51.488;0.152;2023-07-02T04:30:16;15.90;99.90
29731;DHT22;16639;51.488;0.152;2023-07-02T04:32:43;15.90;99.90
29731;DHT22;16639;51.488;0.152;2023-07-02T04:35:11;15.90;99.90
29731;DHT22;16639;51.488;0.152;2023-07-02T04:37:38;15.80;99.90
29731;DHT22;16639;51.488;0.152;2023-07-02T04:40:08;15.80;99.90
29731;DHT22;16639;51.488;0.152;2023-07-02T04:42:40;15.80;99.90
29731;DHT22;16639;51.488;0.152;2023-07-02T04:45:08;15.80;99.90
29731;DHT22;16639;51.488;0.152;2023-07-02T04:47:36;15.80;99.90
29731;DHT22;16639;51.488;0.152;2023-07-02T04:50:05;16.10;99.90
29731;DHT22;16639;51.488;0.152;2023-07-02T04:52:35;15.80;99.90
29731;DHT22;16639;51.488;0.152;2023-07-02T04:55:03;15.80;99.90
29731;DHT22;16639;51.488;0.152;2023-07-02T04:57:31;15.80;99.90
29731;DHT22;16639;51.488;0.152;2023-07-02T04:59:59;15.80;99.90
29731;DHT22;16639;51.488;0.152;2023-07-02T05:02:26;15.80;99.90
29731;DHT22;16639;51.488;0.152;2023-07-02T05:04:54;15.80;99.90
29731;DHT22;16639;51.488;0.152;2023-07-02T05:07:21;15.70;99.90
29731;DHT22;16639;51.488;0.152;2023-07-02T05:09:49;15.80;99.90
29731;DHT22;16639;51.488;0.152;2023-07-02T05:12:19;15.90;99.90
29731;DHT22;16639;51.488;0.152;2023-07-02T05:14:46;15.90;99.90
29731;DHT22;16639;51.488;0.152;2023-07-02T05:17:15;15.90;99.90
29731;DHT22;16639;51.488;0.152;2023-07-02T05:19:45;15.90;99.90
29731;DHT22;16639;51.488;0.152;2023-07-02T05:22:12;16.00;99.90
29731;DHT22;16639;51.488;0.152;2023-07-02T05:24:40;16.30;99.90
29731;DHT22;16639;51.488;0.152;2023-07-02T05:27:10;16.10;99.90
29731;DHT22;16639;51.488;0.152;2023-07-02T05:29:38;16.10;99.90
29731;DHT22;16639;51.488;0.152;2023-07-02T05:32:05;16.20;99.90
29731;DHT22;16639;51.488;0.152;2023-07-02T05:34:34;16.20;99.90
29731;DHT22;16639;51.488;0.152;2023-07-02T05:37:02;16.20;99.90
29731;DHT22;16639;51.488;0.152;2023-07-02T05:39:29;16.20;99.90
29731;DHT22;16639;51.488;0.152;2023-07-02T05:41:57;16.30;99.90
29731;DHT22;16639;51.488;0.152;2023-07-02T05:44:25;16.20;99.90
29731;DHT22;16639;51.488;0.152;2023-07-02T05:46:52;16.30;99.90
29731;DHT22;16639;51.488;0.152;2023-07-02T05:49:19;16.30;99.90
29731;DHT22;16639;51.488;0.152;2023-07-02T05:51:47;16.70;99.90
29731;DHT22;16639;51.488;0.152;2023-07-02T05:54:14;16.30;99.90
29731;DHT22;16639;51.488;0.152;2023-07-02T05:56:42;16.30;99.90
29731;DHT22;16639;51.488;0.152;2023-07-02T05:59:09;16.40;99.90
29731;DHT22;16639;51.488;0.152;2023-07-02T06:01:37;16.40;99.90
29731;DHT22;16639;51.488;0.152;2023-07-02T06:04:04;16.40;99.90
29731;DHT22;16639;51.488;0.152;2023-07-02T06:06:32;16.40;99.90
29731;DHT22;16639;51.488;0.152;2023-07-02T06:08:59;16.40;99.90
29731;DHT22;16639;51.488;0.152;2023-07-02T06:11:27;16.40;99.90
29731;DHT22;16639;51.488;0.152;2023-07-02T06:13:54;16.40;99.90
29731;DHT22;16639;51.488;0.152;2023-07-02T06:16:22;16.40;99.90
29731;DHT22;16639;51.488;0.152;2023-07-02T06:18:50;16.50;99.90
29731;DHT22;16639;51.488;0.152;2023-07-02T06:21:18;16.50;99.90
29731;DHT22;16639;51.488;0.152;2023-07-02T06:23:46;16.50;99.90
29731;DHT22;16639;51.488;0.152;2023-07-02T06:26:14;16.50;99.90
29731;DHT22;16639;51.488;0.152;2023-07-02T06:28:41;16.50;99.90
29731;DHT22;16639;51.488;0.152;2023-07-02T06:31:08;16.40;99.90
29731;DHT22;16639;51.488;0.152;2023-07-02T06:33:39;16.50;99.90
29731;DHT22;16639;51.488;0.152;2023-07-02T06:36:08;16.50;99.90
29731;DHT22;16639;51.488;0.152;2023-07-02T06:38:39;16.50;99.90
29731;DHT22;16639;51.488;0.152;2023-07-02T06:41:06;16.60;99.90
29731;DHT22;16639;51.488;0.152;2023-07-02T06:43:52;16.60;99.90
29731;DHT22;16639;51.488;0.152;2023-07-02T06:46:20;16.60;99.90
29731;DHT22;16639;51.488;0.152;2023-07-02T06:48:48;16.70;99.90
29731;DHT22;16639;51.488;0.152;2023-07-02T06:51:15;17.20;99.90
29731;DHT22;16639;51.488;0.152;2023-07-02T06:53:44;16.60;99.90
29731;DHT22;16639;51.488;0.152;2023-07-02T06:56:12;16.60;99.90
29731;DHT22;16639;51.488;0.152;2023-07-02T06:58:42;16.60;99.90
29731;DHT22;16639;51.488;0.152;2023-07-02T07:01:11;16.60;99.90
29731;DHT22;16639;51.488;0.152;2023-07-02T07:03:38;16.60;99.90
29731;DHT22;16639;51.488;0.152;2023-07-02T07:06:06;16.70;99.90
29731;DHT22;16639;51.488;0.152;2023-07-02T07:08:37;16.70;99.90
29731;DHT22;16639;51.488;0.152;2023-07-02T07:11:06;17.90;99.90
29731;DHT22;16639;51.488;0.152;2023-07-02T07:13:33;16.70;99.90
29731;DHT22;16639;51.488;0.152;2023-07-02T07:16:00;16.70;99.90
29731;DHT22;16639;51.488;0.152;2023-07-02T07:18:28;16.80;99.90
29731;DHT22;16639;51.488;0.152;2023-07-02T07:20:59;16.80;99.90
29731;DHT22;16639;51.488;0.152;2023-07-02T07:23:27;16.80;99.90
29731;DHT22;16639;51.488;0.152;2023-07-02T07:25:54;16.80;99.90
29731;DHT22;16639;51.488;0.152;2023-07-02T07:28:21;16.90;99.90
29731;DHT22;16639;51.488;0.152;2023-07-02T07:30:49;16.90;99.90
29731;DHT22;16639;51.488;0.152;2023-07-02T07:33:17;17.00;99.90
29731;DHT22;16639;51.488;0.152;2023-07-02T07:35:44;17.00;99.90
29731;DHT22;16639;51.488;0.152;2023-07-02T07:38:15;17.00;99.90
29731;DHT22;16639;51.488;0.152;2023-07-02T07:40:43;17.00;99.90
29731;DHT22;16639;51.488;0.152;2023-07-02T07:43:11;17.00;99.90
29731;DHT22;16639;51.488;0.152;2023-07-02T07:45:39;17.00;99.90
29731;DHT22;16639;51.488;0.152;2023-07-02T07:48:06;17.10;99.90
29731;DHT22;16639;51.488;0.152;2023-07-02T07:50:34;17.10;99.90
29731;DHT22;16639;51.488;0.152;2023-07-02T07:53:01;17.10;99.90
29731;DHT22;16639;51.488;0.152;2023-07-02T07:55:29;17.20;99.90
29731;DHT22;16639;51.488;0.152;2023-07-02T07:57:57;17.20;99.90
29731;DHT22;16639;51.488;0.152;2023-07-02T08:00:24;17.20;99.90
29731;DHT22;16639;51.488;0.152;2023-07-02T08:02:52;17.20;99.90
29731;DHT22;16639;51.488;0.152;2023-07-02T08:05:23;17.20;99.90
29731;DHT22;16639;51.488;0.152;2023-07-02T08:07:50;16.90;99.90
29731;DHT22;16639;51.488;0.152;2023-07-02T08:10:18;17.30;99.90
29731;DHT22;16639;51.488;0.152;2023-07-02T08:12:46;17.30;99.90
29731;DHT22;16639;51.488;0.152;2023-07-02T08:15:14;17.40;99.90
29731;DHT22;16639;51.488;0.152;2023-07-02T08:17:42;17.40;99.90
29731;DHT22;16639;51.488;0.152;2023-07-02T08:20:10;17.40;99.90
29731;DHT22;16639;51.488;0.152;2023-07-02T08:22:38;17.40;99.90
29731;DHT22;16639;51.488;0.152;2023-07-02T08:25:06;17.40;99.90
29731;DHT22;16639;51.488;0.152;2023-07-02T08:27:35;17.40;99.90
29731;DHT22;16639;51.488;0.152;2023-07-02T08:30:02;17.40;99.90
29731;DHT22;16639;51.488;0.152;2023-07-02T08:32:30;17.40;99.90
29731;DHT22;16639;51.488;0.152;2023-07-02T08:35:00;17.20;99.90
29731;DHT22;16639;51.488;0.152;2023-07-02T08:37:27;17.40;99.90
29731;DHT22;16639;51.488;0.152;2023-07-02T08:39:55;17.20;99.90
29731;DHT22;16639;51.488;0.152;2023-07-02T08:42:22;17.50;99.90
29731;DHT22;16639;51.488;0.152;2023-07-02T08:44:53;17.50;99.90
29731;DHT22;16639;51.488;0.152;2023-07-02T08:47:21;17.50;99.90
29731;DHT22;16639;51.488;0.152;2023-07-02T08:49:49;17.50;99.90
29731;DHT22;16639;51.488;0.152;2023-07-02T08:52:17;17.50;99.90
29731;DHT22;16639;51.488;0.152;2023-07-02T08:54:44;17.50;99.90
29731;DHT22;16639;51.488;0.152;2023-07-02T08:57:12;17.60;99.90
29731;DHT22;16639;51.488;0.152;2023-07-02T08:59:39;17.70;99.90
29731;DHT22;16639;51.488;0.152;2023-07-02T09:02:07;17.70;99.90
29731;DHT22;16639;51.488;0.152;2023-07-02T09:04:34;17.80;99.90
29731;DHT22;16639;51.488;0.152;2023-07-02T09:07:09;17.80;99.90
29731;DHT22;16639;51.488;0.152;2023-07-02T09:09:47;17.80;99.90
29731;DHT22;16639;51.488;0.152;2023-07-02T09:12:29;17.80;99.90
29731;DHT22;16639;51.488;0.152;2023-07-02T09:15:00;17.90;99.90
29731;DHT22;16639;51.488;0.152;2023-07-02T09:17:32;18.00;99.90
29731;DHT22;16639;51.488;0.152;2023-07-02T09:20:02;18.20;99.90
29731;DHT22;16639;51.488;0.152;2023-07-02T09:22:32;18.30;99.90
29731;DHT22;16639;51.488;0.152;2023-07-02T09:25:00;18.30;99.90
29731;DHT22;16639;51.488;0.152;2023-07-02T09:27:35;18.40;99.90
29731;DHT22;16639;51.488;0.152;2023-07-02T09:30:08;18.50;99.90
29731;DHT22;16639;51.488;0.152;2023-07-02T09:32:36;18.60;99.90
29731;DHT22;16639;51.488;0.152;2023-07-02T09:35:04;18.70;99.90
29731;DHT22;16639;51.488;0.152;2023-07-02T09:37:32;18.70;99.90
29731;DHT22;16639;51.488;0.152;2023-07-02T09:40:00;18.90;99.90
29731;DHT22;16639;51.488;0.152;2023-07-02T09:42:29;18.90;99.90
29731;DHT22;16639;51.488;0.152;2023-07-02T09:44:58;18.80;99.90
29731;DHT22;16639;51.488;0.152;2023-07-02T09:47:26;18.80;99.90
29731;DHT22;16639;51.488;0.152;2023-07-02T09:50:03;18.90;99.90
29731;DHT22;16639;51.488;0.152;2023-07-02T09:52:34;18.90;99.90
29731;DHT22;16639;51.488;0.152;2023-07-02T09:55:02;18.90;99.90
29731;DHT22;16639;51.488;0.152;2023-07-02T09:57:31;19.00;99.90
29731;DHT22;16639;51.488;0.152;2023-07-02T10:00:00;19.10;99.90
29731;DHT22;16639;51.488;0.152;2023-07-02T10:02:28;19.20;99.90
29731;DHT22;16639;51.488;0.152;2023-07-02T10:04:56;19.20;99.90
29731;DHT22;16639;51.488;0.152;2023-07-02T10:07:28;19.20;99.90
29731;DHT22;16639;51.488;0.152;2023-07-02T10:09:56;18.30;99.90
29731;DHT22;16639;51.488;0.152;2023-07-02T10:12:28;19.00;99.90
29731;DHT22;16639;51.488;0.152;2023-07-02T10:14:58;19.00;99.90
29731;DHT22;16639;51.488;0.152;2023-07-02T10:17:32;18.90;99.90
29731;DHT22;16639;51.488;0.152;2023-07-02T10:20:06;19.00;99.90
29731;DHT22;16639;51.488;0.152;2023-07-02T10:22:44;19.10;99.90
29731;DHT22;16639;51.488;0.152;2023-07-02T10:25:12;19.20;99.90
29731;DHT22;16639;51.488;0.152;2023-07-02T10:27:50;19.30;99.90
29731;DHT22;16639;51.488;0.152;2023-07-02T10:30:18;19.40;99.90
29731;DHT22;16639;51.488;0.152;2023-07-02T10:32:45;19.40;99.90
29731;DHT22;16639;51.488;0.152;2023-07-02T10:37:42;19.40;99.90
29731;DHT22;16639;51.488;0.152;2023-07-02T10:40:10;19.50;99.90
29731;DHT22;16639;51.488;0.152;2023-07-02T10:42:45;19.50;99.90
29731;DHT22;16639;51.488;0.152;2023-07-02T10:45:13;19.60;99.90
29731;DHT22;16639;51.488;0.152;2023-07-02T10:47:41;19.70;99.90
29731;DHT22;16639;51.488;0.152;2023-07-02T10:50:21;19.70;99.90
29731;DHT22;16639;51.488;0.152;2023-07-02T10:52:50;19.80;99.90
29731;DHT22;16639;51.488;0.152;2023-07-02T10:55:25;19.90;99.90
29731;DHT22;16639;51.488;0.152;2023-07-02T10:58:07;19.90;99.90
29731;DHT22;16639;51.488;0.152;2023-07-02T11:00:44;19.90;99.90
29731;DHT22;16639;51.488;0.152;2023-07-02T11:03:22;19.80;99.90
29731;DHT22;16639;51.488;0.152;2023-07-02T11:05:51;19.90;99.90
29731;DHT22;16639;51.488;0.152;2023-07-02T11:08:20;19.80;99.90
29731;DHT22;16639;51.488;0.152;2023-07-02T11:11:04;20.00;99.90
29731;DHT22;16639;51.488;0.152;2023-07-02T11:13:32;20.00;99.90
29731;DHT22;16639;51.488;0.152;2023-07-02T11:15:59;19.90;99.90
29731;DHT22;16639;51.488;0.152;2023-07-02T11:18:30;19.90;99.90
29731;DHT22;16639;51.488;0.152;2023-07-02T11:21:09;19.90;99.90
29731;DHT22;16639;51.488;0.152;2023-07-02T11:23:37;19.90;99.90
29731;DHT22;16639;51.488;0.152;2023-07-02T11:26:04;19.90;99.90
29731;DHT22;16639;51.488;0.152;2023-07-02T11:28:32;19.90;99.90
29731;DHT22;16639;51.488;0.152;2023-07-02T11:31:04;19.90;99.90
29731;DHT22;16639;51.488;0.152;2023-07-02T11:33:38;19.90;99.90
29731;DHT22;16639;51.488;0.152;2023-07-02T11:36:07;19.90;99.90
29731;DHT22;16639;51.488;0.152;2023-07-02T11:38:36;20.00;99.90
29731;DHT22;16639;51.488;0.152;2023-07-02T11:41:04;20.00;99.90
29731;DHT22;16639;51.488;0.152;2023-07-02T11:43:32;19.90;99.90
29731;DHT22;16639;51.488;0.152;2023-07-02T11:45:59;19.90;99.90
29731;DHT22;16639;51.488;0.152;2023-07-02T11:48:27;19.90;99.90
29731;DHT22;16639;51.488;0.152;2023-07-02T11:50:54;19.90;99.90
29731;DHT22;16639;51.488;0.152;2023-07-02T11:53:22;20.00;99.90
29731;DHT22;16639;51.488;0.152;2023-07-02T11:55:49;19.90;99.90
29731;DHT22;16639;51.488;0.152;2023-07-02T11:58:17;19.90;99.90
29731;DHT22;16639;51.488;0.152;2023-07-02T12:00:44;20.00;99.90
29731;DHT22;16639;51.488;0.152;2023-07-02T12:03:12;19.90;99.90
29731;DHT22;16639;51.488;0.152;2023-07-02T12:05:40;19.80;99.90
29731;DHT22;16639;51.488;0.152;2023-07-02T12:08:07;19.80;99.90
29731;DHT22;16639;51.488;0.152;2023-07-02T12:10:36;19.90;99.90
29731;DHT22;16639;51.488;0.152;2023-07-02T12:13:05;19.90;99.90
29731;DHT22;16639;51.488;0.152;2023-07-02T12:15:32;20.10;99.90
29731;DHT22;16639;51.488;0.152;2023-07-02T12:17:59;20.20;99.90
29731;DHT22;16639;51.488;0.152;2023-07-02T12:20:27;20.20;99.90
29731;DHT22;16639;51.488;0.152;2023-07-02T12:22:54;20.20;99.90
29731;DHT22;16639;51.488;0.152;2023-07-02T12:25:26;20.30;99.90
29731;DHT22;16639;51.488;0.152;2023-07-02T12:27:53;20.30;99.90
29731;DHT22;16639;51.488;0.152;2023-07-02T12:30:21;20.40;99.90
29731;DHT22;16639;51.488;0.152;2023-07-02T12:32:48;20.50;99.90
29731;DHT22;16639;51.488;0.152;2023-07-02T12:35:16;20.50;99.90
29731;DHT22;16639;51.488;0.152;2023-07-02T12:37:48;20.50;99.90
29731;DHT22;16639;51.488;0.152;2023-07-02T12:40:16;20.40;99.90
29731;DHT22;16639;51.488;0.152;2023-07-02T12:42:45;20.30;99.90
29731;DHT22;16639;51.488;0.152;2023-07-02T12:45:13;20.30;99.90
29731;DHT22;16639;51.488;0.152;2023-07-02T12:47:41;20.30;99.90
29731;DHT22;16639;51.488;0.152;2023-07-02T12:50:10;20.50;99.90
29731;DHT22;16639;51.488;0.152;2023-07-02T12:52:38;20.60;99.90
29731;DHT22;16639;51.488;0.152;2023-07-02T12:55:05;20.70;99.90
29731;DHT22;16639;51.488;0.152;2023-07-02T12:57:33;20.40;99.90
29731;DHT22;16639;51.488;0.152;2023-07-02T13:00:01;20.80;99.90
29731;DHT22;16639;51.488;0.152;2023-07-02T13:02:29;20.90;99.90
29731;DHT22;16639;51.488;0.152;2023-07-02T13:04:57;21.00;99.90
29731;DHT22;16639;51.488;0.152;2023-07-02T13:07:24;20.90;99.90
29731;DHT22;16639;51.488;0.152;2023-07-02T13:09:52;20.90;99.90
29731;DHT22;16639;51.488;0.152;2023-07-02T13:12:20;20.90;99.90
29731;DHT22;16639;51.488;0.152;2023-07-02T13:14:47;20.80;99.90
29731;DHT22;16639;51.488;0.152;2023-07-02T13:17:15;20.80;99.90
29731;DHT22;16639;51.488;0.152;2023-07-02T13:19:42;20.70;99.90
29731;DHT22;16639;51.488;0.152;2023-07-02T13:22:10;20.90;99.90
29731;DHT22;16639;51.488;0.152;2023-07-02T13:24:37;21.00;99.90
29731;DHT22;16639;51.488;0.152;2023-07-02T13:27:12;21.10;99.90
29731;DHT22;16639;51.488;0.152;2023-07-02T13:29:40;21.40;99.90
29731;DHT22;16639;51.488;0.152;2023-07-02T13:32:07;21.10;99.90
29731;DHT22;16639;51.488;0.152;2023-07-02T13:34:35;21.00;99.90
29731;DHT22;16639;51.488;0.152;2023-07-02T13:37:03;20.90;99.90
29731;DHT22;16639;51.488;0.152;2023-07-02T13:39:30;20.80;99.90
29731;DHT22;16639;51.488;0.152;2023-07-02T13:41:58;20.70;99.90
29731;DHT22;16639;51.488;0.152;2023-07-02T13:44:25;20.70;99.90
29731;DHT22;16639;51.488;0.152;2023-07-02T13:46:53;20.80;99.90
29731;DHT22;16639;51.488;0.152;2023-07-02T13:49:20;20.70;99.90
29731;DHT22;16639;51.488;0.152;2023-07-02T13:51:48;20.80;99.90
29731;DHT22;16639;51.488;0.152;2023-07-02T13:54:17;20.80;99.90
29731;DHT22;16639;51.488;0.152;2023-07-02T13:56:46;20.80;99.90
29731;DHT22;16639;51.488;0.152;2023-07-02T13:59:17;20.80;99.90
29731;DHT22;16639;51.488;0.152;2023-07-02T14:01:45;20.90;99.90
29731;DHT22;16639;51.488;0.152;2023-07-02T14:04:14;20.70;99.90
29731;DHT22;16639;51.488;0.152;2023-07-02T14:06:41;20.70;99.90
29731;DHT22;16639;51.488;0.152;2023-07-02T14:09:10;20.80;99.90
29731;DHT22;16639;51.488;0.152;2023-07-02T14:11:40;20.90;99.90
29731;DHT22;16639;51.488;0.152;2023-07-02T14:14:07;20.90;99.90
29731;DHT22;16639;51.488;0.152;2023-07-02T14:16:35;20.80;99.90
29731;DHT22;16639;51.488;0.152;2023-07-02T14:19:03;20.80;99.90
29731;DHT22;16639;51.488;0.152;2023-07-02T14:21:30;20.70;99.90
29731;DHT22;16639;51.488;0.152;2023-07-02T14:23:58;20.80;99.80
29731;DHT22;16639;51.488;0.152;2023-07-02T14:26:26;20.60;99.90
29731;DHT22;16639;51.488;0.152;2023-07-02T14:28:55;20.50;99.90
29731;DHT22;16639;51.488;0.152;2023-07-02T14:31:23;20.50;99.90
29731;DHT22;16639;51.488;0.152;2023-07-02T14:33:50;20.40;99.90
29731;DHT22;16639;51.488;0.152;2023-07-02T14:36:18;20.40;99.90
29731;DHT22;16639;51.488;0.152;2023-07-02T14:38:45;20.50;99.90
29731;DHT22;16639;51.488;0.152;2023-07-02T14:41:12;20.60;99.90
29731;DHT22;16639;51.488;0.152;2023-07-02T14:43:40;20.60;99.90
29731;DHT22;16639;51.488;0.152;2023-07-02T14:46:07;20.60;99.90
29731;DHT22;16639;51.488;0.152;2023-07-02T14:48:35;20.60;99.90
29731;DHT22;16639;51.488;0.152;2023-07-02T14:51:03;20.50;99.90
29731;DHT22;16639;51.488;0.152;2023-07-02T14:53:31;20.50;99.90
29731;DHT22;16639;51.488;0.152;2023-07-02T14:56:01;20.40;99.90
29731;DHT22;16639;51.488;0.152;2023-07-02T14:58:29;20.40;99.90
29731;DHT22;16639;51.488;0.152;2023-07-02T15:00:58;20.40;99.90
29731;DHT22;16639;51.488;0.152;2023-07-02T15:03:27;20.40;99.90
29731;DHT22;16639;51.488;0.152;2023-07-02T15:06:12;20.40;99.90
29731;DHT22;16639;51.488;0.152;2023-07-02T15:08:40;20.40;99.90
29731;DHT22;16639;51.488;0.152;2023-07-02T15:11:09;20.50;99.90
29731;DHT22;16639;51.488;0.152;2023-07-02T15:13:37;20.60;99.90
29731;DHT22;16639;51.488;0.152;2023-07-02T15:16:05;20.70;99.90
29731;DHT22;16639;51.488;0.152;2023-07-02T15:18:33;20.60;99.90
29731;DHT22;16639;51.488;0.152;2023-07-02T15:21:01;20.70;99.90
29731;DHT22;16639;51.488;0.152;2023-07-02T15:23:29;20.60;99.90
29731;DHT22;16639;51.488;0.152;2023-07-02T15:26:02;20.60;99.90
29731;DHT22;16639;51.488;0.152;2023-07-02T15:28:30;20.50;99.90
29731;DHT22;16639;51.488;0.152;2023-07-02T15:31:01;20.50;99.90
29731;DHT22;16639;51.488;0.152;2023-07-02T15:33:29;20.60;99.90
29731;DHT22;16639;51.488;0.152;2023-07-02T15:35:59;20.70;99.90
29731;DHT22;16639;51.488;0.152;2023-07-02T15:38:26;20.80;99.90
29731;DHT22;16639;51.488;0.152;2023-07-02T15:41:09;20.90;99.90
29731;DHT22;16639;51.488;0.152;2023-07-02T15:43:40;20.80;99.80